sensor_id;sensor_type;location;lat;lon;timestamp;P1;durP1;ratioP1;P2;durP2;ratioP2
66425;SDS011;53237;46.158;14.604;2023-02-23T00:00:46;69.38;;;45.03;;
66425;SDS011;53237;46.158;14.604;2023-02-23T00:03:12;54.50;;;36.00;;
66425;SDS011;53237;46.158;14.604;2023-02-23T00:05:38;51.85;;;36.22;;
66425;SDS011;53237;46.158;14.604;2023-02-23T00:08:04;44.95;;;33.20;;
66425;SDS011;53237;46.158;14.604;2023-02-23T00:10:30;54.33;;;37.75;;
66425;SDS011;53237;46.158;14.604;2023-02-23T00:12:57;49.60;;;33.80;;
66425;SDS011;53237;46.158;14.604;2023-02-23T00:15:24;48.03;;;33.95;;
66425;SDS011;53237;46.158;14.604;2023-02-23T00:17:54;45.67;;;32.47;;
66425;SDS011;53237;46.158;14.604;2023-02-23T00:20:21;45.05;;;32.00;;
66425;SDS011;53237;46.158;14.604;2023-02-23T00:22:51;45.90;;;32.60;;
66425;SDS011;53237;46.158;14.604;2023-02-23T00:25:18;43.15;;;31.83;;
66425;SDS011;53237;46.158;14.604;2023-02-23T00:27:44;41.20;;;30.42;;
66425;SDS011;53237;46.158;14.604;2023-02-23T00:30:14;42.08;;;30.67;;
66425;SDS011;53237;46.158;14.604;2023-02-23T00:32:41;43.97;;;31.23;;
66425;SDS011;53237;46.158;14.604;2023-02-23T00:35:07;44.03;;;31.88;;
66425;SDS011;53237;46.158;14.604;2023-02-23T00:37:36;41.97;;;29.95;;
66425;SDS011;53237;46.158;14.604;2023-02-23T00:40:03;44.33;;;31.67;;
66425;SDS011;53237;46.158;14.604;2023-02-23T00:42:40;44.33;;;30.52;;
66425;SDS011;53237;46.158;14.604;2023-02-23T00:45:07;40.50;;;29.27;;
66425;SDS011;53237;46.158;14.604;2023-02-23T00:47:35;44.15;;;29.88;;
66425;SDS011;53237;46.158;14.604;2023-02-23T00:50:02;45.13;;;31.05;;
66425;SDS011;53237;46.158;14.604;2023-02-23T00:52:28;40.40;;;28.50;;
66425;SDS011;53237;46.158;14.604;2023-02-23T00:54:54;40.78;;;30.63;;
66425;SDS011;53237;46.158;14.604;2023-02-23T00:57:21;40.22;;;29.88;;
66425;SDS011;53237;46.158;14.604;2023-02-23T00:59:47;39.28;;;28.55;;
66425;SDS011;53237;46.158;14.604;2023-02-23T01:02:13;45.17;;;30.25;;
66425;SDS011;53237;46.158;14.604;2023-02-23T01:04:39;39.47;;;28.90;;
66425;SDS011;53237;46.158;14.604;2023-02-23T01:07:05;42.25;;;31.35;;
66425;SDS011;53237;46.158;14.604;2023-02-23T01:09:31;43.05;;;32.58;;
66425;SDS011;53237;46.158;14.604;2023-02-23T01:11:57;38.00;;;27.65;;
66425;SDS011;53237;46.158;14.604;2023-02-23T01:14:27;40.88;;;29.08;;
66425;SDS011;53237;46.158;14.604;2023-02-23T01:16:53;39.17;;;29.58;;
66425;SDS011;53237;46.158;14.604;2023-02-23T01:19:19;38.95;;;28.67;;
66425;SDS011;53237;46.158;14.604;2023-02-23T01:21:45;43.42;;;29.98;;
66425;SDS011;53237;46.158;14.604;2023-02-23T01:24:11;38.80;;;28.55;;
66425;SDS011;53237;46.158;14.604;2023-02-23T01:26:39;41.92;;;28.55;;
66425;SDS011;53237;46.158;14.604;2023-02-23T01:29:09;40.15;;;29.30;;
66425;SDS011;53237;46.158;14.604;2023-02-23T01:31:36;38.70;;;27.95;;
66425;SDS011;53237;46.158;14.604;2023-02-23T01:34:03;38.47;;;27.75;;
66425;SDS011;53237;46.158;14.604;2023-02-23T01:36:32;40.42;;;28.83;;
66425;SDS011;53237;46.158;14.604;2023-02-23T01:38:58;42.65;;;29.67;;
66425;SDS011;53237;46.158;14.604;2023-02-23T01:41:25;45.67;;;29.88;;
66425;SDS011;53237;46.158;14.604;2023-02-23T01:44:57;45.08;;;30.48;;
66425;SDS011;53237;46.158;14.604;2023-02-23T01:46:52;49.75;;;33.28;;
66425;SDS011;53237;46.158;14.604;2023-02-23T01:49:19;42.10;;;29.40;;
66425;SDS011;53237;46.158;14.604;2023-02-23T01:51:51;39.15;;;28.73;;
66425;SDS011;53237;46.158;14.604;2023-02-23T01:54:27;42.75;;;28.83;;
66425;SDS011;53237;46.158;14.604;2023-02-23T01:56:55;41.15;;;27.13;;
66425;SDS011;53237;46.158;14.604;2023-02-23T01:59:31;39.00;;;26.40;;
66425;SDS011;53237;46.158;14.604;2023-02-23T02:01:58;37.85;;;26.33;;
66425;SDS011;53237;46.158;14.604;2023-02-23T02:04:24;38.28;;;26.48;;
66425;SDS011;53237;46.158;14.604;2023-02-23T02:06:50;38.88;;;25.83;;
66425;SDS011;53237;46.158;14.604;2023-02-23T02:09:18;39.80;;;26.75;;
66425;SDS011;53237;46.158;14.604;2023-02-23T02:11:45;38.72;;;27.33;;
66425;SDS011;53237;46.158;14.604;2023-02-23T02:14:19;38.97;;;27.60;;
66425;SDS011;53237;46.158;14.604;2023-02-23T02:24:37;41.95;;;26.67;;
66425;SDS011;53237;46.158;14.604;2023-02-23T02:27:20;41.05;;;27.55;;
66425;SDS011;53237;46.158;14.604;2023-02-23T02:32:39;38.45;;;27.02;;
66425;SDS011;53237;46.158;14.604;2023-02-23T02:40:16;40.50;;;27.17;;
66425;SDS011;53237;46.158;14.604;2023-02-23T02:42:48;38.25;;;26.33;;
66425;SDS011;53237;46.158;14.604;2023-02-23T02:48:21;39.95;;;27.40;;
66425;SDS011;53237;46.158;14.604;2023-02-23T02:53:42;38.33;;;26.55;;
66425;SDS011;53237;46.158;14.604;2023-02-23T02:56:05;42.20;;;27.63;;
66425;SDS011;53237;46.158;14.604;2023-02-23T02:58:32;39.00;;;25.35;;
66425;SDS011;53237;46.158;14.604;2023-02-23T03:01:04;36.05;;;26.00;;
66425;SDS011;53237;46.158;14.604;2023-02-23T03:03:49;39.33;;;26.48;;
66425;SDS011;53237;46.158;14.604;2023-02-23T03:06:36;34.75;;;24.90;;
66425;SDS011;53237;46.158;14.604;2023-02-23T03:12:28;36.65;;;25.63;;
66425;SDS011;53237;46.158;14.604;2023-02-23T03:15:25;33.05;;;23.77;;
66425;SDS011;53237;46.158;14.604;2023-02-23T03:18:17;40.80;;;25.55;;
66425;SDS011;53237;46.158;14.604;2023-02-23T03:21:09;38.35;;;25.63;;
66425;SDS011;53237;46.158;14.604;2023-02-23T03:35:08;36.00;;;24.08;;
66425;SDS011;53237;46.158;14.604;2023-02-23T03:40:45;35.97;;;24.90;;
66425;SDS011;53237;46.158;14.604;2023-02-23T03:43:37;37.38;;;25.42;;
66425;SDS011;53237;46.158;14.604;2023-02-23T03:46:25;49.78;;;33.90;;
66425;SDS011;53237;46.158;14.604;2023-02-23T03:49:12;37.47;;;26.83;;
66425;SDS011;53237;46.158;14.604;2023-02-23T03:52:00;35.20;;;25.60;;
66425;SDS011;53237;46.158;14.604;2023-02-23T03:54:48;34.47;;;24.63;;
66425;SDS011;53237;46.158;14.604;2023-02-23T03:57:36;46.47;;;31.48;;
66425;SDS011;53237;46.158;14.604;2023-02-23T04:00:24;42.60;;;30.52;;
66425;SDS011;53237;46.158;14.604;2023-02-23T04:03:11;36.30;;;25.70;;
66425;SDS011;53237;46.158;14.604;2023-02-23T04:05:58;38.65;;;26.73;;
66425;SDS011;53237;46.158;14.604;2023-02-23T04:08:44;43.63;;;30.38;;
66425;SDS011;53237;46.158;14.604;2023-02-23T04:11:31;45.88;;;32.22;;
66425;SDS011;53237;46.158;14.604;2023-02-23T04:14:18;43.72;;;30.98;;
66425;SDS011;53237;46.158;14.604;2023-02-23T04:16:45;46.95;;;31.48;;
66425;SDS011;53237;46.158;14.604;2023-02-23T04:19:11;46.97;;;32.17;;
66425;SDS011;53237;46.158;14.604;2023-02-23T04:21:37;44.00;;;31.75;;
66425;SDS011;53237;46.158;14.604;2023-02-23T04:24:04;35.55;;;25.45;;
66425;SDS011;53237;46.158;14.604;2023-02-23T04:26:30;34.92;;;24.73;;
66425;SDS011;53237;46.158;14.604;2023-02-23T04:28:56;38.22;;;27.52;;
66425;SDS011;53237;46.158;14.604;2023-02-23T04:31:22;48.08;;;31.58;;
66425;SDS011;53237;46.158;14.604;2023-02-23T04:33:48;39.05;;;27.98;;
66425;SDS011;53237;46.158;14.604;2023-02-23T04:36:14;43.50;;;30.80;;
66425;SDS011;53237;46.158;14.604;2023-02-23T04:38:41;53.85;;;33.55;;
66425;SDS011;53237;46.158;14.604;2023-02-23T04:41:07;35.30;;;24.70;;
66425;SDS011;53237;46.158;14.604;2023-02-23T04:43:33;36.70;;;26.13;;
66425;SDS011;53237;46.158;14.604;2023-02-23T04:45:59;32.25;;;23.75;;
66425;SDS011;53237;46.158;14.604;2023-02-23T04:48:25;29.85;;;23.35;;
66425;SDS011;53237;46.158;14.604;2023-02-23T04:50:52;33.58;;;23.42;;
66425;SDS011;53237;46.158;14.604;2023-02-23T04:53:18;51.75;;;35.55;;
66425;SDS011;53237;46.158;14.604;2023-02-23T04:55:44;46.28;;;30.77;;
66425;SDS011;53237;46.158;14.604;2023-02-23T04:58:10;37.83;;;27.05;;
66425;SDS011;53237;46.158;14.604;2023-02-23T05:00:39;35.58;;;25.02;;
66425;SDS011;53237;46.158;14.604;2023-02-23T05:03:05;33.08;;;25.00;;
66425;SDS011;53237;46.158;14.604;2023-02-23T05:05:31;47.38;;;33.28;;
66425;SDS011;53237;46.158;14.604;2023-02-23T05:07:57;53.83;;;36.42;;
66425;SDS011;53237;46.158;14.604;2023-02-23T05:10:24;37.60;;;26.60;;
66425;SDS011;53237;46.158;14.604;2023-02-23T05:12:50;46.95;;;32.00;;
66425;SDS011;53237;46.158;14.604;2023-02-23T05:15:16;54.88;;;34.00;;
66425;SDS011;53237;46.158;14.604;2023-02-23T05:17:42;53.38;;;34.67;;
66425;SDS011;53237;46.158;14.604;2023-02-23T05:20:09;45.65;;;29.95;;
66425;SDS011;53237;46.158;14.604;2023-02-23T05:22:35;44.13;;;29.15;;
66425;SDS011;53237;46.158;14.604;2023-02-23T05:25:02;50.33;;;33.65;;
66425;SDS011;53237;46.158;14.604;2023-02-23T05:27:28;39.15;;;27.90;;
66425;SDS011;53237;46.158;14.604;2023-02-23T05:29:54;47.88;;;29.65;;
66425;SDS011;53237;46.158;14.604;2023-02-23T05:32:20;41.45;;;28.55;;
66425;SDS011;53237;46.158;14.604;2023-02-23T05:34:46;38.78;;;26.05;;
66425;SDS011;53237;46.158;14.604;2023-02-23T05:37:12;35.33;;;25.95;;
66425;SDS011;53237;46.158;14.604;2023-02-23T05:39:38;46.60;;;32.15;;
66425;SDS011;53237;46.158;14.604;2023-02-23T05:42:04;56.80;;;38.63;;
66425;SDS011;53237;46.158;14.604;2023-02-23T05:44:30;34.72;;;25.23;;
66425;SDS011;53237;46.158;14.604;2023-02-23T05:46:57;36.65;;;26.42;;
66425;SDS011;53237;46.158;14.604;2023-02-23T05:49:23;37.22;;;26.00;;
66425;SDS011;53237;46.158;14.604;2023-02-23T05:51:49;39.78;;;27.50;;
66425;SDS011;53237;46.158;14.604;2023-02-23T05:54:15;57.47;;;36.67;;
66425;SDS011;53237;46.158;14.604;2023-02-23T05:56:41;54.92;;;36.17;;
66425;SDS011;53237;46.158;14.604;2023-02-23T05:59:07;50.88;;;33.90;;
66425;SDS011;53237;46.158;14.604;2023-02-23T06:01:33;51.53;;;33.90;;
66425;SDS011;53237;46.158;14.604;2023-02-23T06:03:59;40.72;;;28.45;;
66425;SDS011;53237;46.158;14.604;2023-02-23T06:06:25;38.75;;;26.55;;
66425;SDS011;53237;46.158;14.604;2023-02-23T06:08:52;38.25;;;27.55;;
66425;SDS011;53237;46.158;14.604;2023-02-23T06:11:18;35.58;;;25.67;;
66425;SDS011;53237;46.158;14.604;2023-02-23T06:13:44;36.97;;;27.17;;
66425;SDS011;53237;46.158;14.604;2023-02-23T06:16:11;40.90;;;28.98;;
66425;SDS011;53237;46.158;14.604;2023-02-23T06:18:38;35.00;;;26.55;;
66425;SDS011;53237;46.158;14.604;2023-02-23T06:21:04;42.10;;;29.85;;
66425;SDS011;53237;46.158;14.604;2023-02-23T06:23:31;34.13;;;25.77;;
66425;SDS011;53237;46.158;14.604;2023-02-23T06:25:57;35.20;;;25.85;;
66425;SDS011;53237;46.158;14.604;2023-02-23T06:28:24;35.20;;;25.65;;
66425;SDS011;53237;46.158;14.604;2023-02-23T06:30:51;36.08;;;25.95;;
66425;SDS011;53237;46.158;14.604;2023-02-23T06:33:17;35.30;;;26.52;;
66425;SDS011;53237;46.158;14.604;2023-02-23T06:35:43;38.47;;;26.75;;
66425;SDS011;53237;46.158;14.604;2023-02-23T06:38:10;34.80;;;25.23;;
66425;SDS011;53237;46.158;14.604;2023-02-23T06:40:36;35.28;;;26.05;;
66425;SDS011;53237;46.158;14.604;2023-02-23T06:43:02;35.03;;;26.35;;
66425;SDS011;53237;46.158;14.604;2023-02-23T06:45:29;42.63;;;32.30;;
66425;SDS011;53237;46.158;14.604;2023-02-23T06:47:56;44.20;;;31.20;;
66425;SDS011;53237;46.158;14.604;2023-02-23T06:50:22;32.38;;;25.10;;
66425;SDS011;53237;46.158;14.604;2023-02-23T06:52:48;39.88;;;28.85;;
66425;SDS011;53237;46.158;14.604;2023-02-23T06:55:14;33.67;;;24.77;;
66425;SDS011;53237;46.158;14.604;2023-02-23T06:57:40;34.83;;;26.00;;
66425;SDS011;53237;46.158;14.604;2023-02-23T07:00:08;32.53;;;25.02;;
66425;SDS011;53237;46.158;14.604;2023-02-23T07:02:34;34.50;;;24.35;;
66425;SDS011;53237;46.158;14.604;2023-02-23T07:05:02;32.47;;;24.25;;
66425;SDS011;53237;46.158;14.604;2023-02-23T07:07:28;35.28;;;25.00;;
66425;SDS011;53237;46.158;14.604;2023-02-23T07:09:54;33.03;;;25.33;;
66425;SDS011;53237;46.158;14.604;2023-02-23T07:12:20;35.50;;;26.10;;
66425;SDS011;53237;46.158;14.604;2023-02-23T07:14:46;33.35;;;25.85;;
66425;SDS011;53237;46.158;14.604;2023-02-23T07:17:12;35.67;;;27.10;;
66425;SDS011;53237;46.158;14.604;2023-02-23T07:19:38;35.40;;;26.05;;
66425;SDS011;53237;46.158;14.604;2023-02-23T07:22:04;34.08;;;25.10;;
66425;SDS011;53237;46.158;14.604;2023-02-23T07:24:30;38.60;;;27.33;;
66425;SDS011;53237;46.158;14.604;2023-02-23T07:26:56;38.80;;;27.65;;
66425;SDS011;53237;46.158;14.604;2023-02-23T07:29:22;38.40;;;28.52;;
66425;SDS011;53237;46.158;14.604;2023-02-23T07:31:48;37.33;;;28.15;;
66425;SDS011;53237;46.158;14.604;2023-02-23T07:34:15;35.65;;;27.60;;
66425;SDS011;53237;46.158;14.604;2023-02-23T07:36:41;36.53;;;28.35;;
66425;SDS011;53237;46.158;14.604;2023-02-23T07:39:06;37.78;;;29.33;;
66425;SDS011;53237;46.158;14.604;2023-02-23T07:41:33;37.47;;;29.13;;
66425;SDS011;53237;46.158;14.604;2023-02-23T07:43:59;39.28;;;30.05;;
66425;SDS011;53237;46.158;14.604;2023-02-23T07:46:25;35.55;;;28.42;;
66425;SDS011;53237;46.158;14.604;2023-02-23T07:48:51;35.78;;;27.75;;
66425;SDS011;53237;46.158;14.604;2023-02-23T07:51:17;39.88;;;29.25;;
66425;SDS011;53237;46.158;14.604;2023-02-23T07:53:43;36.83;;;28.35;;
66425;SDS011;53237;46.158;14.604;2023-02-23T07:56:09;48.25;;;35.03;;
66425;SDS011;53237;46.158;14.604;2023-02-23T07:58:39;39.80;;;30.08;;
66425;SDS011;53237;46.158;14.604;2023-02-23T08:01:05;41.28;;;30.85;;
66425;SDS011;53237;46.158;14.604;2023-02-23T08:03:31;36.78;;;28.60;;
66425;SDS011;53237;46.158;14.604;2023-02-23T08:05:57;54.88;;;42.55;;
66425;SDS011;53237;46.158;14.604;2023-02-23T08:08:23;67.00;;;48.42;;
66425;SDS011;53237;46.158;14.604;2023-02-23T08:10:49;52.42;;;39.15;;
66425;SDS011;53237;46.158;14.604;2023-02-23T08:13:16;40.95;;;31.65;;
66425;SDS011;53237;46.158;14.604;2023-02-23T08:15:42;57.42;;;41.88;;
66425;SDS011;53237;46.158;14.604;2023-02-23T08:18:08;40.30;;;32.50;;
66425;SDS011;53237;46.158;14.604;2023-02-23T08:20:35;57.65;;;41.03;;
66425;SDS011;53237;46.158;14.604;2023-02-23T08:23:01;64.15;;;43.70;;
66425;SDS011;53237;46.158;14.604;2023-02-23T08:25:27;61.72;;;43.47;;
66425;SDS011;53237;46.158;14.604;2023-02-23T08:27:53;45.42;;;34.20;;
66425;SDS011;53237;46.158;14.604;2023-02-23T08:30:20;47.30;;;32.75;;
66425;SDS011;53237;46.158;14.604;2023-02-23T08:32:46;48.70;;;36.50;;
66425;SDS011;53237;46.158;14.604;2023-02-23T08:35:13;43.65;;;31.75;;
66425;SDS011;53237;46.158;14.604;2023-02-23T08:37:39;40.88;;;30.83;;
66425;SDS011;53237;46.158;14.604;2023-02-23T08:40:06;50.08;;;35.72;;
66425;SDS011;53237;46.158;14.604;2023-02-23T08:42:32;43.53;;;32.33;;
66425;SDS011;53237;46.158;14.604;2023-02-23T08:44:58;50.17;;;35.85;;
66425;SDS011;53237;46.158;14.604;2023-02-23T08:47:25;36.85;;;29.08;;
66425;SDS011;53237;46.158;14.604;2023-02-23T08:49:51;42.85;;;32.17;;
66425;SDS011;53237;46.158;14.604;2023-02-23T08:52:20;36.28;;;27.73;;
66425;SDS011;53237;46.158;14.604;2023-02-23T08:54:47;38.58;;;28.60;;
66425;SDS011;53237;46.158;14.604;2023-02-23T08:57:13;41.72;;;30.77;;
66425;SDS011;53237;46.158;14.604;2023-02-23T08:59:39;73.28;;;45.53;;
66425;SDS011;53237;46.158;14.604;2023-02-23T09:02:05;79.68;;;51.92;;
66425;SDS011;53237;46.158;14.604;2023-02-23T09:04:32;59.25;;;40.55;;
66425;SDS011;53237;46.158;14.604;2023-02-23T09:07:03;41.85;;;30.42;;
66425;SDS011;53237;46.158;14.604;2023-02-23T09:09:29;45.30;;;32.45;;
66425;SDS011;53237;46.158;14.604;2023-02-23T09:11:55;38.83;;;30.10;;
66425;SDS011;53237;46.158;14.604;2023-02-23T09:14:21;47.53;;;35.03;;
66425;SDS011;53237;46.158;14.604;2023-02-23T09:16:47;49.13;;;35.22;;
66425;SDS011;53237;46.158;14.604;2023-02-23T09:19:13;66.70;;;45.13;;
66425;SDS011;53237;46.158;14.604;2023-02-23T09:21:39;58.88;;;43.72;;
66425;SDS011;53237;46.158;14.604;2023-02-23T09:24:05;74.68;;;51.85;;
66425;SDS011;53237;46.158;14.604;2023-02-23T09:26:31;44.92;;;33.92;;
66425;SDS011;53237;46.158;14.604;2023-02-23T09:28:59;53.50;;;39.33;;
66425;SDS011;53237;46.158;14.604;2023-02-23T09:31:25;60.78;;;42.58;;
66425;SDS011;53237;46.158;14.604;2023-02-23T09:33:52;56.63;;;39.03;;
66425;SDS011;53237;46.158;14.604;2023-02-23T09:36:19;48.13;;;34.28;;
66425;SDS011;53237;46.158;14.604;2023-02-23T09:38:47;51.17;;;35.55;;
66425;SDS011;53237;46.158;14.604;2023-02-23T09:45:05;53.40;;;36.55;;
66425;SDS011;53237;46.158;14.604;2023-02-23T09:47:07;46.13;;;34.45;;
66425;SDS011;53237;46.158;14.604;2023-02-23T09:49:38;65.22;;;44.38;;
66425;SDS011;53237;46.158;14.604;2023-02-23T09:52:05;75.10;;;50.35;;
66425;SDS011;53237;46.158;14.604;2023-02-23T09:54:35;72.25;;;46.03;;
66425;SDS011;53237;46.158;14.604;2023-02-23T09:57:03;75.95;;;49.17;;
66425;SDS011;53237;46.158;14.604;2023-02-23T09:59:30;83.07;;;53.10;;
66425;SDS011;53237;46.158;14.604;2023-02-23T10:01:57;58.28;;;39.00;;
66425;SDS011;53237;46.158;14.604;2023-02-23T10:04:35;70.32;;;46.30;;
66425;SDS011;53237;46.158;14.604;2023-02-23T10:12:18;49.50;;;35.58;;
66425;SDS011;53237;46.158;14.604;2023-02-23T10:22:21;58.47;;;39.53;;
66425;SDS011;53237;46.158;14.604;2023-02-23T10:27:18;67.70;;;41.90;;
66425;SDS011;53237;46.158;14.604;2023-02-23T10:29:48;77.75;;;46.63;;
66425;SDS011;53237;46.158;14.604;2023-02-23T10:34:41;47.20;;;33.35;;
66425;SDS011;53237;46.158;14.604;2023-02-23T10:37:08;52.17;;;34.35;;
66425;SDS011;53237;46.158;14.604;2023-02-23T10:39:35;46.45;;;33.20;;
66425;SDS011;53237;46.158;14.604;2023-02-23T10:42:02;43.97;;;30.38;;
66425;SDS011;53237;46.158;14.604;2023-02-23T10:44:29;40.15;;;29.75;;
66425;SDS011;53237;46.158;14.604;2023-02-23T10:47:00;46.63;;;31.38;;
66425;SDS011;53237;46.158;14.604;2023-02-23T10:49:48;49.47;;;34.63;;
66425;SDS011;53237;46.158;14.604;2023-02-23T10:52:14;44.95;;;32.35;;
66425;SDS011;53237;46.158;14.604;2023-02-23T10:54:41;47.22;;;33.17;;
66425;SDS011;53237;46.158;14.604;2023-02-23T10:57:08;46.40;;;31.25;;
66425;SDS011;53237;46.158;14.604;2023-02-23T10:59:39;43.55;;;30.33;;
66425;SDS011;53237;46.158;14.604;2023-02-23T11:02:14;41.42;;;29.58;;
66425;SDS011;53237;46.158;14.604;2023-02-23T11:04:48;46.47;;;33.08;;
66425;SDS011;53237;46.158;14.604;2023-02-23T11:07:16;48.30;;;32.40;;
66425;SDS011;53237;46.158;14.604;2023-02-23T11:09:42;43.13;;;30.40;;
66425;SDS011;53237;46.158;14.604;2023-02-23T11:14:46;52.47;;;35.90;;
66425;SDS011;53237;46.158;14.604;2023-02-23T11:17:53;45.67;;;31.95;;
66425;SDS011;53237;46.158;14.604;2023-02-23T11:20:09;50.58;;;33.80;;
66425;SDS011;53237;46.158;14.604;2023-02-23T11:22:43;43.70;;;33.45;;
66425;SDS011;53237;46.158;14.604;2023-02-23T11:25:28;41.08;;;29.35;;
66425;SDS011;53237;46.158;14.604;2023-02-23T11:27:55;37.50;;;27.20;;
66425;SDS011;53237;46.158;14.604;2023-02-23T11:30:22;38.15;;;28.52;;
66425;SDS011;53237;46.158;14.604;2023-02-23T11:32:53;44.55;;;32.67;;
66425;SDS011;53237;46.158;14.604;2023-02-23T11:37:46;41.15;;;28.92;;
66425;SDS011;53237;46.158;14.604;2023-02-23T11:42:51;60.13;;;43.00;;
66425;SDS011;53237;46.158;14.604;2023-02-23T11:45:18;44.40;;;33.40;;
66425;SDS011;53237;46.158;14.604;2023-02-23T11:47:46;36.83;;;27.48;;
66425;SDS011;53237;46.158;14.604;2023-02-23T11:52:48;37.13;;;27.38;;
66425;SDS011;53237;46.158;14.604;2023-02-23T11:55:16;35.30;;;27.98;;
66425;SDS011;53237;46.158;14.604;2023-02-23T11:57:46;42.67;;;30.63;;
66425;SDS011;53237;46.158;14.604;2023-02-23T12:00:21;37.63;;;28.20;;
66425;SDS011;53237;46.158;14.604;2023-02-23T12:02:57;36.58;;;26.50;;
66425;SDS011;53237;46.158;14.604;2023-02-23T12:05:28;33.78;;;26.88;;
66425;SDS011;53237;46.158;14.604;2023-02-23T12:10:22;44.00;;;31.60;;
66425;SDS011;53237;46.158;14.604;2023-02-23T12:13:03;56.05;;;37.10;;
66425;SDS011;53237;46.158;14.604;2023-02-23T12:21:03;41.60;;;29.63;;
66425;SDS011;53237;46.158;14.604;2023-02-23T12:23:32;55.42;;;38.55;;
66425;SDS011;53237;46.158;14.604;2023-02-23T12:26:08;45.65;;;32.72;;
66425;SDS011;53237;46.158;14.604;2023-02-23T12:28:36;44.95;;;33.92;;
66425;SDS011;53237;46.158;14.604;2023-02-23T12:31:05;33.92;;;26.17;;
66425;SDS011;53237;46.158;14.604;2023-02-23T12:33:43;35.35;;;27.15;;
66425;SDS011;53237;46.158;14.604;2023-02-23T12:41:12;51.40;;;36.83;;
66425;SDS011;53237;46.158;14.604;2023-02-23T12:43:43;46.00;;;32.92;;
66425;SDS011;53237;46.158;14.604;2023-02-23T12:49:21;34.17;;;26.40;;
66425;SDS011;53237;46.158;14.604;2023-02-23T12:51:55;46.28;;;34.10;;
66425;SDS011;53237;46.158;14.604;2023-02-23T12:54:22;53.42;;;37.83;;
66425;SDS011;53237;46.158;14.604;2023-02-23T13:14:37;54.92;;;40.33;;
66425;SDS011;53237;46.158;14.604;2023-02-23T13:17:23;46.30;;;32.63;;
66425;SDS011;53237;46.158;14.604;2023-02-23T13:19:54;53.95;;;38.55;;
66425;SDS011;53237;46.158;14.604;2023-02-23T13:24:52;52.50;;;37.22;;
66425;SDS011;53237;46.158;14.604;2023-02-23T13:27:27;47.05;;;32.42;;
66425;SDS011;53237;46.158;14.604;2023-02-23T13:29:54;49.00;;;35.85;;
66425;SDS011;53237;46.158;14.604;2023-02-23T13:32:24;45.17;;;33.25;;
66425;SDS011;53237;46.158;14.604;2023-02-23T13:34:55;49.42;;;34.35;;
66425;SDS011;53237;46.158;14.604;2023-02-23T13:37:23;43.15;;;29.92;;
66425;SDS011;53237;46.158;14.604;2023-02-23T13:47:55;39.58;;;28.90;;
66425;SDS011;53237;46.158;14.604;2023-02-23T13:53:03;45.70;;;32.60;;
66425;SDS011;53237;46.158;14.604;2023-02-23T13:58:03;48.05;;;30.10;;
66425;SDS011;53237;46.158;14.604;2023-02-23T14:00:30;38.72;;;28.10;;
66425;SDS011;53237;46.158;14.604;2023-02-23T14:03:00;42.70;;;31.40;;
66425;SDS011;53237;46.158;14.604;2023-02-23T14:05:27;44.92;;;30.90;;
66425;SDS011;53237;46.158;14.604;2023-02-23T14:07:54;45.80;;;32.33;;
66425;SDS011;53237;46.158;14.604;2023-02-23T14:10:22;48.25;;;30.38;;
66425;SDS011;53237;46.158;14.604;2023-02-23T14:18:00;31.75;;;25.05;;
66425;SDS011;53237;46.158;14.604;2023-02-23T14:25:44;32.63;;;25.23;;
66425;SDS011;53237;46.158;14.604;2023-02-23T14:30:59;57.58;;;39.28;;
66425;SDS011;53237;46.158;14.604;2023-02-23T14:36:01;36.13;;;27.58;;
66425;SDS011;53237;46.158;14.604;2023-02-23T14:38:29;31.38;;;24.45;;
66425;SDS011;53237;46.158;14.604;2023-02-23T14:40:56;33.47;;;25.50;;
66425;SDS011;53237;46.158;14.604;2023-02-23T14:46:18;47.22;;;33.10;;
66425;SDS011;53237;46.158;14.604;2023-02-23T14:48:54;35.95;;;26.85;;
66425;SDS011;53237;46.158;14.604;2023-02-23T14:51:24;33.47;;;26.13;;
66425;SDS011;53237;46.158;14.604;2023-02-23T14:53:50;33.53;;;24.75;;
66425;SDS011;53237;46.158;14.604;2023-02-23T14:56:20;34.05;;;25.83;;
66425;SDS011;53237;46.158;14.604;2023-02-23T14:58:50;39.83;;;30.58;;
66425;SDS011;53237;46.158;14.604;2023-02-23T15:01:33;36.00;;;26.83;;
66425;SDS011;53237;46.158;14.604;2023-02-23T15:04:06;33.58;;;24.08;;
66425;SDS011;53237;46.158;14.604;2023-02-23T15:06:32;40.08;;;28.15;;
66425;SDS011;53237;46.158;14.604;2023-02-23T15:08:58;34.50;;;26.05;;
66425;SDS011;53237;46.158;14.604;2023-02-23T15:11:26;33.47;;;25.63;;
66425;SDS011;53237;46.158;14.604;2023-02-23T15:13:55;34.10;;;25.63;;
66425;SDS011;53237;46.158;14.604;2023-02-23T15:18:50;34.33;;;26.08;;
66425;SDS011;53237;46.158;14.604;2023-02-23T15:21:18;38.13;;;27.35;;
66425;SDS011;53237;46.158;14.604;2023-02-23T15:23:50;35.45;;;26.85;;
66425;SDS011;53237;46.158;14.604;2023-02-23T15:28:42;47.20;;;33.80;;
66425;SDS011;53237;46.158;14.604;2023-02-23T15:31:09;47.10;;;34.53;;
66425;SDS011;53237;46.158;14.604;2023-02-23T15:33:36;48.17;;;33.90;;
66425;SDS011;53237;46.158;14.604;2023-02-23T15:38:29;50.25;;;32.55;;
66425;SDS011;53237;46.158;14.604;2023-02-23T15:40:58;45.42;;;31.80;;
66425;SDS011;53237;46.158;14.604;2023-02-23T15:43:25;41.42;;;30.55;;
66425;SDS011;53237;46.158;14.604;2023-02-23T15:45:53;36.95;;;27.98;;
66425;SDS011;53237;46.158;14.604;2023-02-23T15:48:23;34.88;;;26.83;;
66425;SDS011;53237;46.158;14.604;2023-02-23T15:50:55;45.80;;;34.43;;
66425;SDS011;53237;46.158;14.604;2023-02-23T15:53:27;46.53;;;33.58;;
66425;SDS011;53237;46.158;14.604;2023-02-23T15:55:54;47.70;;;35.30;;
66425;SDS011;53237;46.158;14.604;2023-02-23T15:58:25;79.97;;;51.40;;
66425;SDS011;53237;46.158;14.604;2023-02-23T16:00:55;54.58;;;37.92;;
66425;SDS011;53237;46.158;14.604;2023-02-23T16:03:24;56.60;;;40.67;;
66425;SDS011;53237;46.158;14.604;2023-02-23T16:05:55;56.70;;;37.60;;
66425;SDS011;53237;46.158;14.604;2023-02-23T16:08:24;47.20;;;33.78;;
66425;SDS011;53237;46.158;14.604;2023-02-23T16:10:54;52.42;;;36.90;;
66425;SDS011;53237;46.158;14.604;2023-02-23T16:13:24;44.95;;;33.53;;
66425;SDS011;53237;46.158;14.604;2023-02-23T16:15:52;48.63;;;32.95;;
66425;SDS011;53237;46.158;14.604;2023-02-23T16:18:19;53.78;;;37.55;;
66425;SDS011;53237;46.158;14.604;2023-02-23T16:25:46;39.08;;;29.05;;
66425;SDS011;53237;46.158;14.604;2023-02-23T16:28:26;36.15;;;27.77;;
66425;SDS011;53237;46.158;14.604;2023-02-23T16:33:24;34.28;;;26.55;;
66425;SDS011;53237;46.158;14.604;2023-02-23T16:38:37;33.92;;;25.42;;
66425;SDS011;53237;46.158;14.604;2023-02-23T16:41:14;34.63;;;26.63;;
66425;SDS011;53237;46.158;14.604;2023-02-23T16:43:43;34.25;;;26.55;;
66425;SDS011;53237;46.158;14.604;2023-02-23T16:46:09;41.92;;;31.45;;
66425;SDS011;53237;46.158;14.604;2023-02-23T16:48:37;33.55;;;25.05;;
66425;SDS011;53237;46.158;14.604;2023-02-23T16:51:38;32.30;;;26.00;;
66425;SDS011;53237;46.158;14.604;2023-02-23T16:53:58;33.33;;;26.55;;
66425;SDS011;53237;46.158;14.604;2023-02-23T16:56:24;38.20;;;28.80;;